Time;durP1;ratioP1;P1;durP2;ratioP2;P2;SDS_P1;SDS_P2;PMS_P1;PMS_P2;Temp;Humidity;BMP_temperature;BMP_pressure;BME280_temperature;BME280_humidity;BME280_pressure;Samples;Min_cycle;Max_cycle;Signal;HPM_P1;HPM_P2
2022/01/30 00:02:12;;;;;;;7.35;0.73;;;;;;;2.02;100.00;102500.38;5023329;28;20159;-49
2022/01/30 00:04:37;;;;;;;7.30;1.92;;;;;;;2.02;100.00;102503.81;5042259;28;20156;-53
2022/01/30 00:07:03;;;;;;;7.40;0.90;;;;;;;2.05;100.00;102503.63;5035232;28;20108;-48
2022/01/30 00:09:28;;;;;;;5.20;0.75;;;;;;;2.26;100.00;102496.34;5046013;28;20059;-47
2022/01/30 00:11:58;;;;;;;2.50;0.60;;;;;;;2.36;100.00;102484.41;5040845;28;20033;-48
2022/01/30 00:14:26;;;;;;;3.13;0.82;;;;;;;2.63;100.00;102494.22;5037345;28;20055;-47
2022/01/30 00:16:58;;;;;;;5.97;0.65;;;;;;;2.66;100.00;102504.53;5039485;28;20029;-49
2022/01/30 00:19:37;;;;;;;7.07;1.70;;;;;;;2.92;100.00;102505.59;5044157;28;20032;-50
2022/01/30 00:22:17;;;;;;;17.38;1.58;;;;;;;2.99;100.00;102520.00;5041834;28;20043;-48
2022/01/30 00:27:15;;;;;;;6.15;1.95;;;;;;;3.08;100.00;102521.25;5045223;28;20053;-49
2022/01/30 00:29:41;;;;;;;2.53;0.25;;;;;;;3.16;100.00;102518.16;5044014;28;20037;-50
2022/01/30 00:32:07;;;;;;;6.03;0.50;;;;;;;3.15;100.00;102514.72;5034721;28;20037;-49
2022/01/30 00:34:32;;;;;;;4.25;0.52;;;;;;;3.16;100.00;102503.28;5038404;28;20444;-48
2022/01/30 00:36:57;;;;;;;3.85;0.52;;;;;;;3.14;100.00;102502.53;5039108;28;20572;-51
2022/01/30 00:39:23;;;;;;;4.60;0.40;;;;;;;3.11;100.00;102492.22;5045250;28;20132;-48
2022/01/30 00:41:48;;;;;;;10.27;1.05;;;;;;;3.03;100.00;102500.56;5042777;28;20032;-50
2022/01/30 00:44:13;;;;;;;6.95;1.15;;;;;;;3.30;100.00;102504.22;5037785;28;20037;-50
2022/01/30 00:46:41;;;;;;;9.05;0.52;;;;;;;3.36;100.00;102509.09;5040256;28;20359;-51
2022/01/30 00:49:06;;;;;;;11.35;2.67;;;;;;;3.44;100.00;102501.59;5038072;28;20031;-49
2022/01/30 00:51:34;;;;;;;5.43;2.03;;;;;;;3.40;100.00;102513.19;5039567;28;20028;-52
2022/01/30 00:53:59;;;;;;;13.15;2.53;;;;;;;3.33;100.00;102522.38;5043251;28;20405;-47
2022/01/30 00:56:25;;;;;;;4.63;1.08;;;;;;;3.22;100.00;102516.00;5038579;28;20033;-47
2022/01/30 00:58:50;;;;;;;5.80;1.08;;;;;;;3.20;100.00;102511.78;5044688;28;20061;-47
2022/01/30 01:01:15;;;;;;;0.75;0.75;;;;;;;3.05;100.00;102508.34;5038026;28;20130;-47
2022/01/30 01:03:41;;;;;;;5.38;1.15;;;;;;;3.02;100.00;102498.00;5045565;28;20032;-49
2022/01/30 01:06:06;;;;;;;9.02;0.50;;;;;;;3.01;100.00;102497.19;5047033;28;20430;-49
2022/01/30 01:08:45;;;;;;;2.90;0.20;;;;;;;3.03;100.00;102489.22;5028510;28;20036;-48
2022/01/30 01:11:50;;;;;;;4.72;1.83;;;;;;;3.11;100.00;102494.84;5047051;28;20135;-51
2022/01/30 01:24:33;;;;;;;11.02;0.75;;;;;;;3.10;100.00;102502.78;5046678;28;20118;-52
2022/01/30 01:26:58;;;;;;;3.70;0.95;;;;;;;3.11;100.00;102509.75;5053101;28;20041;-51
2022/01/30 01:29:24;;;;;;;4.78;0.60;;;;;;;2.92;100.00;102505.59;5047131;28;20072;-48
2022/01/30 01:31:49;;;;;;;1.77;0.52;;;;;;;2.73;100.00;102500.59;5044691;28;20507;-52
2022/01/30 01:34:33;;;;;;;8.38;0.70;;;;;;;2.71;100.00;102499.00;5051295;28;20468;-53
2022/01/30 01:36:59;;;;;;;5.63;1.20;;;;;;;2.98;100.00;102494.75;5035538;28;20045;-47
2022/01/30 01:39:24;;;;;;;3.72;1.08;;;;;;;3.06;100.00;102507.38;5051056;28;20515;-52
2022/01/30 01:41:50;;;;;;;7.20;0.45;;;;;;;2.83;100.00;102514.00;5048921;28;20036;-47
2022/01/30 01:44:17;;;;;;;4.15;1.33;;;;;;;2.56;100.00;102513.84;5048363;28;20034;-50
2022/01/30 01:46:44;;;;;;;3.00;0.50;;;;;;;2.37;100.00;102524.53;5046776;28;20072;-51
2022/01/30 01:49:18;;;;;;;6.78;1.27;;;;;;;2.19;100.00;102515.94;5041808;28;20393;-51
2022/01/30 01:51:48;;;;;;;7.32;0.70;;;;;;;1.96;100.00;102523.31;5048824;28;20043;-52
2022/01/30 01:54:14;;;;;;;5.82;0.52;;;;;;;1.89;100.00;102519.34;5047735;28;20091;-48
2022/01/30 01:56:39;;;;;;;5.78;0.60;;;;;;;1.85;100.00;102519.59;5050566;28;20505;-52
2022/01/30 01:59:04;;;;;;;2.88;1.50;;;;;;;1.88;100.00;102508.97;5046653;28;20033;-54
2022/01/30 02:01:30;;;;;;;5.10;0.73;;;;;;;2.00;100.00;102504.84;5038700;28;20591;-49
2022/01/30 02:03:55;;;;;;;2.53;0.35;;;;;;;2.04;100.00;102511.56;5049463;28;20020;-53
2022/01/30 02:06:23;;;;;;;6.43;1.45;;;;;;;2.23;100.00;102521.88;5047881;28;20037;-49
2022/01/30 02:08:56;;;;;;;7.57;1.08;;;;;;;2.36;100.00;102518.44;5045918;28;20063;-52
2022/01/30 02:11:36;;;;;;;7.00;0.77;;;;;;;2.30;100.00;102521.44;5057673;28;20116;-52
2022/01/30 02:25:28;;;;;;;4.07;0.93;;;;;;;1.56;100.00;102535.09;5043926;28;20107;-49
2022/01/30 02:27:40;;;;;;;9.70;1.42;;;;;;;1.53;100.00;102540.50;5040852;28;20041;-48
2022/01/30 02:30:13;;;;;;;4.97;0.68;;;;;;;1.51;100.00;102539.72;5034818;28;20036;-50
2022/01/30 02:32:39;;;;;;;2.95;0.40;;;;;;;1.43;100.00;102539.31;5041455;28;20234;-48
2022/01/30 02:35:05;;;;;;;3.63;0.32;;;;;;;1.35;100.00;102539.72;5050524;28;20122;-51
2022/01/30 02:37:30;;;;;;;9.65;1.15;;;;;;;1.34;100.00;102542.38;5050809;28;20079;-47
2022/01/30 02:39:55;;;;;;;6.75;1.17;;;;;;;1.24;100.00;102544.63;5054763;28;20036;-49
2022/01/30 02:42:25;;;;;;;6.05;1.75;;;;;;;1.07;100.00;102540.28;5043190;28;20040;-50
2022/01/30 02:44:55;;;;;;;2.28;0.30;;;;;;;0.91;100.00;102544.63;5043942;28;20041;-49
2022/01/30 02:47:54;;;;;;;2.60;0.65;;;;;;;0.77;100.00;102553.13;5049035;28;20029;-54
2022/01/30 02:50:16;;;;;;;2.72;0.30;;;;;;;0.69;100.00;102557.91;5038946;28;20486;-47
2022/01/30 02:52:44;;;;;;;6.15;0.95;;;;;;;0.62;100.00;102547.75;5042715;28;20041;-50
2022/01/30 02:55:11;;;;;;;10.45;0.70;;;;;;;0.53;100.00;102550.81;5051959;28;20498;-50
2022/01/30 02:57:37;;;;;;;10.60;0.95;;;;;;;0.55;100.00;102555.97;5044290;28;20101;-50
2022/01/30 03:00:05;;;;;;;4.20;0.30;;;;;;;0.55;100.00;102563.81;5061566;28;20454;-51
2022/01/30 03:02:30;;;;;;;5.70;1.15;;;;;;;0.41;100.00;102559.22;5044205;28;20033;-47
2022/01/30 03:04:56;;;;;;;6.25;0.57;;;;;;;0.25;100.00;102561.72;5048151;28;20508;-51
2022/01/30 03:07:21;;;;;;;5.63;0.85;;;;;;;0.15;100.00;102556.09;5045734;28;20033;-53
2022/01/30 03:09:47;;;;;;;3.03;0.28;;;;;;;0.12;100.00;102561.47;5059674;28;20029;-48
2022/01/30 03:12:12;;;;;;;5.82;0.30;;;;;;;0.03;100.00;102568.88;5044910;28;20044;-51
2022/01/30 03:14:37;;;;;;;5.68;0.30;;;;;;;-0.10;100.00;102560.81;5044816;28;20037;-46
2022/01/30 03:17:03;;;;;;;3.00;0.80;;;;;;;-0.06;100.00;102564.94;5045539;28;20029;-50
2022/01/30 03:19:28;;;;;;;5.35;0.60;;;;;;;-0.17;100.00;102562.00;5042552;28;20025;-50
2022/01/30 03:21:54;;;;;;;1.95;0.30;;;;;;;-0.25;100.00;102564.94;5043327;28;20041;-48
2022/01/30 03:24:19;;;;;;;4.40;0.95;;;;;;;-0.32;100.00;102566.13;5045153;28;20037;-47
2022/01/30 03:26:44;;;;;;;4.55;0.60;;;;;;;-0.37;100.00;102570.72;5052642;28;20033;-47
2022/01/30 03:29:10;;;;;;;5.50;0.85;;;;;;;-0.50;100.00;102563.44;5044608;28;20389;-47
2022/01/30 03:31:40;;;;;;;3.72;0.40;;;;;;;-0.54;100.00;102568.84;5025008;28;20036;-46
2022/01/30 03:34:08;;;;;;;2.22;0.25;;;;;;;-0.62;100.00;102566.59;5033781;28;20017;-47
2022/01/30 03:36:33;;;;;;;5.78;0.57;;;;;;;-0.67;100.00;102566.78;5041746;28;20048;-47
2022/01/30 03:38:59;;;;;;;1.80;0.80;;;;;;;-0.71;100.00;102570.44;5040132;28;20428;-46
2022/01/30 03:41:25;;;;;;;5.90;0.25;;;;;;;-0.73;100.00;102564.44;5040644;28;20135;-49
2022/01/30 03:43:51;;;;;;;7.93;2.20;;;;;;;-0.74;100.00;102564.53;5049123;28;20459;-51
2022/01/30 03:46:21;;;;;;;2.10;0.93;;;;;;;-0.83;100.00;102568.34;5048536;28;20029;-50
2022/01/30 03:48:47;;;;;;;1.98;0.03;;;;;;;-0.86;100.00;102573.69;5044322;28;20033;-50
2022/01/30 03:51:13;;;;;;;7.20;2.40;;;;;;;-0.93;100.00;102559.25;5043808;28;20028;-52
2022/01/30 03:53:39;;;;;;;4.93;1.85;;;;;;;-1.03;100.00;102561.41;5031736;28;20027;-48
2022/01/30 03:56:04;;;;;;;1.65;0.47;;;;;;;-1.16;100.00;102570.63;5052320;28;20025;-49
2022/01/30 03:58:31;;;;;;;7.30;1.92;;;;;;;-1.22;100.00;102578.69;5051252;28;20072;-46
2022/01/30 04:00:56;;;;;;;2.88;0.88;;;;;;;-1.24;100.00;102575.31;5018168;28;20086;-52
2022/01/30 04:03:22;;;;;;;2.10;0.40;;;;;;;-1.28;100.00;102578.97;5050683;28;20036;-49
2022/01/30 04:05:47;;;;;;;2.40;0.32;;;;;;;-1.33;100.00;102574.78;5045930;28;20033;-47
2022/01/30 04:08:13;;;;;;;11.23;0.75;;;;;;;-1.38;100.00;102581.09;5055138;28;20040;-49
2022/01/30 04:10:39;;;;;;;0.73;0.10;;;;;;;-1.45;100.00;102584.84;5050831;28;20122;-50
2022/01/30 04:13:04;;;;;;;5.35;0.40;;;;;;;-1.51;100.00;102577.28;5046849;28;20485;-47
2022/01/30 04:15:30;;;;;;;3.85;0.75;;;;;;;-1.59;100.00;102585.41;5054023;28;20024;-50
2022/01/30 04:17:56;;;;;;;0.75;0.75;;;;;;;-1.58;100.00;102590.53;5049385;28;20082;-47
2022/01/30 04:20:21;;;;;;;3.60;0.93;;;;;;;-1.59;100.00;102601.84;5044494;28;20398;-47
2022/01/30 04:22:47;;;;;;;16.05;3.00;;;;;;;-1.68;100.00;102599.59;5034452;28;20088;-45
2022/01/30 04:25:12;;;;;;;2.13;0.20;;;;;;;-1.81;100.00;102595.78;5056642;28;20116;-48
2022/01/30 04:27:38;;;;;;;8.15;0.70;;;;;;;-1.95;100.00;102592.88;5055881;28;20425;-47
2022/01/30 04:30:05;;;;;;;3.08;0.22;;;;;;;-2.00;100.00;102603.44;5046667;28;20033;-48
2022/01/30 04:32:33;;;;;;;3.70;0.22;;;;;;;-2.07;100.00;102602.81;5044101;28;20037;-50
2022/01/30 04:35:00;;;;;;;5.88;0.70;;;;;;;-2.09;100.00;102602.03;5048082;28;20426;-49
2022/01/30 04:37:37;;;;;;;0.45;0.15;;;;;;;-2.05;100.00;102603.59;5052969;28;20037;-46
2022/01/30 04:58:55;;;;;;;1.67;0.30;;;;;;;-2.27;100.00;102607.91;5043927;28;20040;-46
2022/01/30 05:01:52;;;;;;;3.85;0.52;;;;;;;-2.30;100.00;102602.81;5047313;28;20044;-49
2022/01/30 05:04:40;;;;;;;3.97;0.32;;;;;;;-2.35;100.00;102607.34;5051076;28;20091;-51
2022/01/30 05:09:32;;;;;;;2.13;0.00;;;;;;;-2.55;100.00;102595.06;5051892;28;20417;-48
2022/01/30 05:11:57;;;;;;;2.92;0.63;;;;;;;-2.59;100.00;102594.31;5047890;28;20040;-47
2022/01/30 05:14:26;;;;;;;4.88;0.90;;;;;;;-2.64;100.00;102604.84;5040574;28;20032;-51
2022/01/30 05:16:51;;;;;;;3.20;0.25;;;;;;;-2.66;100.00;102600.63;5046270;28;20025;-49
2022/01/30 05:19:17;;;;;;;2.08;0.57;;;;;;;-2.66;100.00;102595.44;5048969;28;20040;-48
2022/01/30 05:21:43;;;;;;;7.47;0.40;;;;;;;-2.70;100.00;102588.66;5046887;28;20036;-49
2022/01/30 05:24:09;;;;;;;3.70;0.73;;;;;;;-2.76;100.00;102581.94;5051675;28;20531;-46
2022/01/30 05:26:38;;;;;;;5.47;0.32;;;;;;;-2.82;100.00;102583.88;5054383;28;20037;-49
2022/01/30 05:29:04;;;;;;;2.42;1.50;;;;;;;-2.87;100.00;102589.22;5049440;28;20124;-48
2022/01/30 05:31:29;;;;;;;3.17;0.40;;;;;;;-2.89;100.00;102591.03;5058967;28;20540;-50
2022/01/30 05:33:55;;;;;;;9.90;1.13;;;;;;;-2.87;100.00;102584.88;5046114;28;20036;-49
2022/01/30 05:36:21;;;;;;;2.15;0.25;;;;;;;-2.88;100.00;102592.75;5049486;28;20406;-49
2022/01/30 05:38:47;;;;;;;1.67;0.25;;;;;;;-2.87;100.00;102594.41;5048815;28;20035;-48
2022/01/30 05:41:12;;;;;;;3.00;0.63;;;;;;;-2.86;100.00;102593.53;5058052;28;20109;-51
2022/01/30 05:43:39;;;;;;;12.15;2.05;;;;;;;-2.88;100.00;102590.16;5051121;28;20491;-49
2022/01/30 05:46:14;;;;;;;6.90;1.05;;;;;;;-2.95;100.00;102578.25;5049083;28;20048;-50
2022/01/30 05:48:40;;;;;;;1.58;0.50;;;;;;;-3.04;100.00;102595.00;5047609;28;20079;-50
2022/01/30 05:51:06;;;;;;;5.28;0.90;;;;;;;-3.09;100.00;102591.72;5038677;28;20448;-46
2022/01/30 05:53:31;;;;;;;6.57;2.58;;;;;;;-3.13;100.00;102600.50;5051103;28;20032;-51
2022/01/30 05:55:57;;;;;;;9.90;0.35;;;;;;;-3.18;100.00;102602.38;5047066;28;20033;-47
2022/01/30 05:58:23;;;;;;;2.50;0.17;;;;;;;-3.21;100.00;102599.91;5046620;28;20061;-47
2022/01/30 06:00:48;;;;;;;3.88;0.75;;;;;;;-3.26;100.00;102594.84;5054663;28;20489;-50
2022/01/30 06:03:14;;;;;;;3.25;0.50;;;;;;;-3.26;100.00;102610.41;5036692;28;20641;-48
2022/01/30 06:05:40;;;;;;;2.78;0.10;;;;;;;-3.25;100.00;102616.44;5050099;28;20110;-53
2022/01/30 06:08:15;;;;;;;10.50;0.10;;;;;;;-3.27;100.00;102613.94;5029812;28;20029;-49
2022/01/30 06:10:41;;;;;;;0.38;0.20;;;;;;;-3.33;100.00;102619.28;5049104;28;20363;-49
2022/01/30 06:13:06;;;;;;;3.58;0.75;;;;;;;-3.35;100.00;102610.72;5046516;28;20044;-49
2022/01/30 06:15:32;;;;;;;6.90;0.38;;;;;;;-3.33;100.00;102602.00;5051483;28;20094;-46
2022/01/30 06:17:57;;;;;;;2.78;0.28;;;;;;;-3.32;100.00;102603.69;5053196;28;20409;-51
2022/01/30 06:20:22;;;;;;;2.78;0.98;;;;;;;-3.31;100.00;102617.50;5049166;28;20032;-51
2022/01/30 06:22:48;;;;;;;0.98;0.13;;;;;;;-3.31;100.00;102604.53;5020333;28;20033;-50
2022/01/30 06:25:14;;;;;;;0.63;0.55;;;;;;;-3.22;100.00;102612.03;5057979;28;20124;-49
2022/01/30 06:27:40;;;;;;;2.65;0.43;;;;;;;-3.25;100.00;102611.25;5047574;28;20440;-50
2022/01/30 06:30:07;;;;;;;5.07;0.50;;;;;;;-3.31;100.00;102623.53;5050021;28;20044;-46
2022/01/30 06:32:32;;;;;;;9.32;1.45;;;;;;;-3.33;100.00;102622.75;5039893;28;20037;-48
2022/01/30 06:34:58;;;;;;;2.47;0.50;;;;;;;-3.32;100.00;102619.25;5031133;28;20029;-52
2022/01/30 06:37:23;;;;;;;4.88;0.65;;;;;;;-3.33;100.00;102614.09;5032268;28;20040;-51
2022/01/30 06:39:49;;;;;;;2.38;0.20;;;;;;;-3.41;100.00;102616.94;5036552;28;20036;-49
2022/01/30 06:42:15;;;;;;;3.20;0.50;;;;;;;-3.48;100.00;102610.28;5035319;28;20035;-50
2022/01/30 06:44:42;;;;;;;1.98;0.30;;;;;;;-3.49;100.00;102626.72;5033265;28;20043;-48
2022/01/30 06:47:08;;;;;;;7.35;0.70;;;;;;;-3.51;100.00;102623.34;5034311;28;20478;-52
2022/01/30 06:49:33;;;;;;;1.42;0.55;;;;;;;-3.55;100.00;102624.31;5033348;28;20032;-50
2022/01/30 06:51:59;;;;;;;3.63;0.52;;;;;;;-3.57;100.00;102633.88;5033054;28;20056;-49
2022/01/30 06:54:24;;;;;;;2.22;0.15;;;;;;;-3.64;100.00;102633.25;5035434;28;20070;-50
2022/01/30 06:56:50;;;;;;;2.55;0.32;;;;;;;-3.67;100.00;102645.44;5036719;28;20122;-49
2022/01/30 06:59:15;;;;;;;3.17;0.60;;;;;;;-3.68;100.00;102643.75;5024208;28;20480;-46
2022/01/30 07:01:41;;;;;;;0.20;0.10;;;;;;;-3.71;100.00;102643.84;5033302;28;20037;-47
2022/01/30 07:04:06;;;;;;;3.80;0.30;;;;;;;-3.75;100.00;102643.91;5034971;28;20064;-49
2022/01/30 07:06:32;;;;;;;6.57;0.57;;;;;;;-3.77;100.00;102645.72;5035541;28;20523;-47
2022/01/30 07:08:57;;;;;;;4.38;0.28;;;;;;;-3.78;100.00;102643.16;5029359;28;20101;-49
2022/01/30 07:11:22;;;;;;;1.45;0.25;;;;;;;-3.80;100.00;102645.78;5037001;28;21134;-48
2022/01/30 07:13:48;;;;;;;1.90;1.00;;;;;;;-3.86;100.00;102652.91;5014309;28;20144;-50
2022/01/30 07:16:15;;;;;;;3.38;0.30;;;;;;;-3.90;100.00;102659.06;5043437;28;20531;-49
2022/01/30 07:18:41;;;;;;;6.35;0.45;;;;;;;-3.94;100.00;102653.13;5045948;28;20056;-48
2022/01/30 07:21:09;;;;;;;0.85;0.47;;;;;;;-4.00;100.00;102650.69;5047134;28;20094;-52
2022/01/30 07:23:34;;;;;;;12.18;0.43;;;;;;;-4.06;100.00;102650.88;5037348;28;20131;-48
2022/01/30 07:26:00;;;;;;;1.65;0.08;;;;;;;-4.11;100.00;102663.13;5046569;28;20890;-46
2022/01/30 07:28:25;;;;;;;3.20;0.40;;;;;;;-4.09;100.00;102659.59;5035801;28;20394;-47
2022/01/30 07:30:51;;;;;;;13.10;0.25;;;;;;;-4.06;100.00;102658.66;5042727;28;20086;-46
2022/01/30 07:33:16;;;;;;;7.50;1.45;;;;;;;-4.05;100.00;102650.84;5047522;28;20064;-50
2022/01/30 07:35:42;;;;;;;5.15;0.15;;;;;;;-4.05;100.00;102661.22;5043256;28;20036;-49
2022/01/30 07:38:08;;;;;;;3.45;0.57;;;;;;;-4.07;100.00;102662.16;5045777;28;20044;-47
2022/01/30 07:40:34;;;;;;;4.03;0.57;;;;;;;-4.05;100.00;102653.44;5052679;28;20036;-49
2022/01/30 07:43:00;;;;;;;1.23;0.22;;;;;;;-4.05;100.00;102665.53;5043575;28;20128;-46
2022/01/30 07:45:26;;;;;;;3.45;1.45;;;;;;;-4.01;100.00;102677.53;5048821;28;20037;-49
2022/01/30 07:47:51;;;;;;;4.20;0.38;;;;;;;-4.00;100.00;102681.78;5038259;28;20401;-49
2022/01/30 07:50:18;;;;;;;3.58;1.73;;;;;;;-3.99;100.00;102676.59;5047228;28;20068;-47
2022/01/30 07:52:43;;;;;;;1.02;0.45;;;;;;;-4.01;100.00;102683.53;5032803;28;20540;-48
2022/01/30 07:55:09;;;;;;;9.32;1.40;;;;;;;-4.08;100.00;102676.84;5029044;28;20033;-46
2022/01/30 07:57:34;;;;;;;2.22;1.00;;;;;;;-4.11;100.00;102671.75;5036935;28;20029;-51
2022/01/30 07:59:59;;;;;;;7.53;1.40;;;;;;;-4.07;100.00;102660.41;5038579;28;20416;-51
2022/01/30 08:02:25;;;;;;;2.08;0.30;;;;;;;-4.08;100.00;102663.91;5032302;28;20044;-46
2022/01/30 08:04:52;;;;;;;2.42;0.80;;;;;;;-4.09;100.00;102666.53;5038275;28;20031;-47
2022/01/30 08:07:18;;;;;;;2.47;0.10;;;;;;;-4.05;100.00;102666.41;5042354;28;20041;-47
2022/01/30 08:09:43;;;;;;;5.97;1.23;;;;;;;-4.02;100.00;102668.91;5038804;28;20482;-47
2022/01/30 08:12:09;;;;;;;0.88;0.77;;;;;;;-4.01;100.00;102674.94;5037183;28;20037;-48
2022/01/30 08:14:35;;;;;;;9.57;1.30;;;;;;;-3.98;100.00;102677.44;5042620;28;20497;-49
2022/01/30 08:17:00;;;;;;;3.10;0.93;;;;;;;-3.98;100.00;102682.59;5039385;28;20033;-51
2022/01/30 08:19:26;;;;;;;4.82;0.63;;;;;;;-4.04;100.00;102685.38;5033452;28;20076;-46
2022/01/30 08:21:51;;;;;;;1.85;0.40;;;;;;;-4.10;100.00;102686.41;5034636;28;20129;-48
2022/01/30 08:24:19;;;;;;;2.45;0.20;;;;;;;-4.11;100.00;102678.66;5035350;28;20762;-48
2022/01/30 08:26:45;;;;;;;6.70;1.42;;;;;;;-4.08;100.00;102686.34;5034484;28;20123;-52
2022/01/30 08:29:10;;;;;;;6.97;0.93;;;;;;;-4.03;100.00;102685.31;5034879;28;20029;-51
2022/01/30 08:31:35;;;;;;;2.80;0.40;;;;;;;-3.97;100.00;102690.34;5034213;28;20029;-48
2022/01/30 08:34:01;;;;;;;1.20;0.38;;;;;;;-3.96;100.00;102699.81;5036458;28;20044;-50
2022/01/30 08:36:26;;;;;;;5.50;0.40;;;;;;;-3.95;100.00;102692.88;5031049;28;20035;-49
2022/01/30 08:38:51;;;;;;;2.80;0.40;;;;;;;-3.92;100.00;102687.63;5033544;28;20125;-48
2022/01/30 08:41:17;;;;;;;1.35;0.13;;;;;;;-3.89;100.00;102692.72;5036767;28;20049;-51
2022/01/30 08:43:42;;;;;;;1.45;0.52;;;;;;;-3.87;100.00;102690.94;5018444;28;20618;-49
2022/01/30 08:46:07;;;;;;;1.85;0.57;;;;;;;-3.83;100.00;102686.50;5035966;28;20120;-48
2022/01/30 08:48:33;;;;;;;1.15;0.50;;;;;;;-3.76;100.00;102683.69;5034140;28;20060;-49
2022/01/30 08:50:59;;;;;;;7.40;0.88;;;;;;;-3.64;100.00;102679.91;5034853;28;20120;-52
2022/01/30 08:53:24;;;;;;;6.20;0.80;;;;;;;-3.48;100.00;102688.09;5038509;28;20033;-47
2022/01/30 08:55:50;;;;;;;3.20;0.47;;;;;;;-3.35;100.00;102689.41;5040930;28;20033;-48
2022/01/30 08:58:15;;;;;;;5.93;0.47;;;;;;;-3.24;100.00;102699.44;5035330;28;20059;-49
2022/01/30 09:00:43;;;;;;;4.95;1.08;;;;;;;-3.13;100.00;102693.91;5040634;28;20182;-46
2022/01/30 09:03:09;;;;;;;4.35;0.90;;;;;;;-3.02;100.00;102696.16;5035575;28;20037;-47
2022/01/30 09:05:35;;;;;;;10.73;0.70;;;;;;;-2.94;100.00;102695.03;5037740;28;20478;-48
2022/01/30 09:08:05;;;;;;;0.80;0.40;;;;;;;-2.86;100.00;102690.44;5032579;28;20029;-50
2022/01/30 09:10:32;;;;;;;2.13;0.88;;;;;;;-2.71;100.00;102686.50;5033691;28;20559;-48
2022/01/30 09:12:57;;;;;;;8.85;0.60;;;;;;;-2.58;100.00;102692.13;5033180;28;20044;-50
2022/01/30 09:15:23;;;;;;;2.45;0.77;;;;;;;-2.48;100.00;102680.53;5032747;28;20033;-49
2022/01/30 09:17:51;;;;;;;4.13;0.68;;;;;;;-2.37;100.00;102661.97;5033159;28;20567;-49
2022/01/30 09:20:17;;;;;;;3.63;0.43;;;;;;;-2.23;100.00;102666.66;5033234;28;20116;-49
2022/01/30 09:22:42;;;;;;;4.45;0.57;;;;;;;-2.11;100.00;102668.00;5031254;28;20402;-45
2022/01/30 09:25:09;;;;;;;4.57;1.85;;;;;;;-2.00;100.00;102658.88;5038090;28;20041;-46
2022/01/30 09:27:34;;;;;;;9.95;1.10;;;;;;;-1.89;100.00;102660.25;5032346;28;20124;-52
2022/01/30 09:30:00;;;;;;;5.43;1.13;;;;;;;-1.76;100.00;102656.28;5035643;28;20132;-46
2022/01/30 09:32:25;;;;;;;4.32;0.55;;;;;;;-1.65;100.00;102664.53;5019531;28;20029;-50
2022/01/30 09:34:51;;;;;;;5.00;2.13;;;;;;;-1.59;100.00;102656.47;5029873;28;20036;-49
2022/01/30 09:37:17;;;;;;;0.98;0.32;;;;;;;-1.51;100.00;102665.75;5032096;28;20035;-49
2022/01/30 09:39:44;;;;;;;7.40;1.52;;;;;;;-1.40;100.00;102666.19;5020197;28;20040;-46
2022/01/30 09:42:09;;;;;;;3.50;1.52;;;;;;;-1.29;100.00;102660.53;5028112;28;20134;-47
2022/01/30 09:44:39;;;;;;;2.60;0.73;;;;;;;-1.19;100.00;102662.75;5036773;28;20586;-47
2022/01/30 09:47:10;;;;;;;7.18;1.02;;;;;;;-1.12;100.00;102671.97;5032866;28;20448;-46
2022/01/30 09:49:39;;;;;;;3.58;1.08;;;;;;;-1.03;100.00;102662.97;5030354;28;20498;-46
2022/01/30 09:52:05;;;;;;;13.90;1.15;;;;;;;-0.86;100.00;102670.06;5028992;28;20034;-46
2022/01/30 09:54:30;;;;;;;3.70;1.40;;;;;;;-0.68;100.00;102666.69;5027805;28;20082;-49
2022/01/30 09:56:55;;;;;;;2.85;1.08;;;;;;;-0.45;100.00;102659.66;5017941;28;20075;-47
2022/01/30 09:59:21;;;;;;;1.77;0.60;;;;;;;-0.25;100.00;102677.06;5022125;28;20755;-45
2022/01/30 10:01:46;;;;;;;6.50;0.35;;;;;;;-0.13;100.00;102671.31;5032854;28;20047;-49
2022/01/30 10:04:11;;;;;;;4.35;0.82;;;;;;;0.00;100.00;102669.00;5035309;28;20033;-48
2022/01/30 10:07:17;;;;;;;5.70;1.05;;;;;;;0.16;100.00;102662.16;5031298;28;20064;-45
2022/01/30 10:09:50;;;;;;;16.40;3.13;;;;;;;0.28;100.00;102673.78;4982010;28;20040;-49
2022/01/30 10:12:20;;;;;;;2.42;0.50;;;;;;;0.41;100.00;102671.47;5030676;28;20439;-46
2022/01/30 10:15:18;;;;;;;3.00;1.17;;;;;;;0.57;100.00;102661.19;5027837;28;20188;-47
2022/01/30 10:17:48;;;;;;;3.00;0.55;;;;;;;0.76;100.00;102661.97;5010424;28;20506;-50
2022/01/30 10:20:16;;;;;;;5.32;1.02;;;;;;;0.85;100.00;102664.16;5028770;28;20214;-49
2022/01/30 10:22:53;;;;;;;1.25;0.57;;;;;;;0.99;100.00;102657.41;5035083;28;20028;-47
2022/01/30 10:25:28;;;;;;;5.03;1.50;;;;;;;1.14;100.00;102653.19;5036259;28;20033;-47
2022/01/30 10:28:14;;;;;;;8.85;0.75;;;;;;;1.38;100.00;102653.72;5033763;28;20044;-50
2022/01/30 10:30:56;;;;;;;5.30;0.95;;;;;;;1.58;100.00;102639.63;5036674;28;20750;-45
2022/01/30 10:33:37;;;;;;;4.63;1.20;;;;;;;1.80;100.00;102631.50;5029856;28;20040;-46
2022/01/30 10:36:03;;;;;;;3.87;1.70;;;;;;;2.03;100.00;102636.34;5029647;28;20029;-46
2022/01/30 10:38:36;;;;;;;5.35;2.22;;;;;;;2.25;100.00;102632.56;5030245;28;20029;-46
2022/01/30 10:41:31;;;;;;;10.00;1.02;;;;;;;2.51;100.00;102628.50;5032153;28;20037;-49
2022/01/30 10:44:01;;;;;;;1.67;0.65;;;;;;;2.74;100.00;102632.44;5025166;28;20045;-49
2022/01/30 10:46:32;;;;;;;14.40;1.25;;;;;;;2.90;100.00;102627.16;5029650;28;20041;-48
2022/01/30 10:49:11;;;;;;;7.40;1.48;;;;;;;3.08;100.00;102614.78;5030982;28;20036;-48
2022/01/30 10:51:37;;;;;;;4.10;1.35;;;;;;;3.25;100.00;102615.47;5035719;28;20053;-52
2022/01/30 10:54:06;;;;;;;5.85;1.70;;;;;;;3.40;100.00;102607.59;5031409;28;20498;-48
2022/01/30 10:56:32;;;;;;;12.70;2.72;;;;;;;3.54;100.00;102612.00;5027674;28;20039;-51
2022/01/30 10:59:20;;;;;;;9.07;2.85;;;;;;;3.71;100.00;102599.56;5029701;28;21536;-51
2022/01/30 11:01:48;;;;;;;3.53;1.10;;;;;;;3.88;100.00;102589.81;5037340;28;20037;-47
2022/01/30 11:04:20;;;;;;;8.07;1.83;;;;;;;4.03;100.00;102590.63;5034118;28;20037;-47
2022/01/30 11:06:46;;;;;;;10.85;3.65;;;;;;;4.15;100.00;102593.31;5034455;28;20061;-48
2022/01/30 11:09:17;;;;;;;6.82;2.25;;;;;;;4.30;100.00;102574.91;5037916;28;20063;-47
2022/01/30 11:11:51;;;;;;;4.70;1.43;;;;;;;4.41;100.00;102564.53;5034676;28;20048;-51
2022/01/30 11:14:20;;;;;;;8.88;1.42;;;;;;;4.51;100.00;102551.63;5028632;28;20032;-53
2022/01/30 11:19:22;;;;;;;8.75;2.67;;;;;;;4.56;100.00;102562.69;5032998;28;20049;-52
2022/01/30 11:21:50;;;;;;;7.43;1.17;;;;;;;4.69;100.00;102546.97;5030660;28;20041;-48
2022/01/30 11:24:19;;;;;;;8.63;3.13;;;;;;;4.73;100.00;102553.69;5025374;28;20028;-48
2022/01/30 11:26:45;;;;;;;12.63;2.75;;;;;;;4.82;100.00;102550.44;5033778;28;20482;-49
2022/01/30 11:29:12;;;;;;;3.25;1.00;;;;;;;4.91;100.00;102520.91;5031814;28;20506;-49
2022/01/30 11:31:38;;;;;;;6.63;2.25;;;;;;;4.87;100.00;102532.56;5031212;28;21016;-48
2022/01/30 11:34:04;;;;;;;8.00;2.80;;;;;;;4.98;100.00;102527.47;5025240;28;20094;-52
2022/01/30 11:36:32;;;;;;;14.38;2.85;;;;;;;5.13;100.00;102520.28;5025277;28;20029;-50
2022/01/30 11:38:59;;;;;;;9.00;2.60;;;;;;;5.30;100.00;102505.13;5024570;28;20095;-52
2022/01/30 11:41:24;;;;;;;12.93;2.08;;;;;;;5.49;100.00;102487.09;5029729;28;20109;-51
2022/01/30 11:44:17;;;;;;;15.35;2.55;;;;;;;5.63;100.00;102479.06;5030549;28;20517;-49
2022/01/30 11:47:03;;;;;;;10.68;1.55;;;;;;;5.78;100.00;102456.09;5034256;28;20041;-47
2022/01/30 11:49:55;;;;;;;5.30;0.70;;;;;;;5.84;100.00;102445.09;5019179;28;20128;-47
2022/01/30 11:52:59;;;;;;;6.72;3.25;;;;;;;5.93;100.00;102434.84;5032918;28;20441;-48
2022/01/30 11:55:51;;;;;;;5.05;1.17;;;;;;;5.98;100.00;102435.38;5032249;28;20048;-48
2022/01/30 11:58:35;;;;;;;;;;;;;;;5.99;100.00;102432.63;5030029;28;20346;-51
2022/01/30 12:01:03;;;;;;;8.35;0.80;;;;;;;6.07;100.00;102418.91;5030575;28;19921;-52
2022/01/30 12:03:35;;;;;;;5.00;0.95;;;;;;;6.22;100.00;102412.50;5025407;28;20033;-49
2022/01/30 12:06:19;;;;;;;5.40;1.40;;;;;;;6.29;100.00;102405.78;5028528;28;20033;-48
2022/01/30 12:08:47;;;;;;;3.70;1.60;;;;;;;6.28;100.00;102398.84;5027499;28;20147;-49
2022/01/30 12:11:34;;;;;;;2.08;0.95;;;;;;;6.36;100.00;102402.69;5031281;28;20490;-47
2022/01/30 12:14:03;;;;;;;16.30;2.00;;;;;;;6.41;100.00;102384.75;5026296;28;20035;-53